Latest Weather Observations for Cleve Airport

IDS60801

Issued at 8:01 pm CST Saturday 24 June 2017 (issued every 30 minutes, with the page automatically refreshed every 10 minutes)

About weather observations | Map of weather stations | Latest weather observations for SA | Other Formats
Station Details ID: 018116 Name: CLEVE AERODROME Lat: -33.71 Lon: 136.50 Height: 175.0 m
Data from the previous 72 hours. | See also: Recent months at Cleve Airport
Date/Time
CST
Temp
°C
App
Temp
°C
Dew
Point
°C
Rel
Hum
%
Delta-T
°C
Wind Press
QNH
hPa
Press
MSL
hPa
Rain since
9am
mm
Dir  Spd
km/h
Gust
km/h
Spd
kts
Gust
kts
24/08:00pm 11.0 10.2 9.8 92 0.6 SSE 4 7 2 4 1019.5 1019.5 0.0
24/07:30pm 10.4 9.2 8.2 86 1.1 E 4 6 2 3 1019.3 1019.3 0.0
24/07:00pm 10.9 9.4 8.3 84 1.3 ENE 6 6 3 3 1019.2 1019.2 0.0
24/06:30pm 10.8 8.9 7.5 80 1.6 NE 7 7 4 4 1018.7 1018.7 0.0
24/06:00pm 11.2 8.7 6.7 74 2.1 ESE 9 11 5 6 1018.4 1018.4 0.0
24/05:30pm 12.9 10.9 7.1 68 2.8 ESE 7 9 4 5 1018.2 1018.2 0.0
24/05:00pm 14.7 12.5 7.7 63 3.5 ESE 9 13 5 7 1018.1 1018.1 0.0
24/04:30pm 15.3 12.3 7.8 61 3.8 SE 13 17 7 9 1018.1 1018.1 0.0
24/04:00pm 15.0 11.9 7.3 60 3.8 ESE 13 15 7 8 1017.9 1018.0 0.0
24/03:30pm 15.4 12.1 7.9 61 3.8 ESE 15 17 8 9 1018.1 1018.1 0.0
24/03:00pm 16.1 12.7 7.8 58 4.2 ESE 15 20 8 11 1018.1 1018.1 0.0
24/02:30pm 16.2 13.1 7.4 56 4.4 ESE 13 20 7 11 1017.9 1018.0 0.0
24/02:00pm 16.7 14.2 8.1 57 4.4 E 11 19 6 10 1017.9 1018.0 0.0
24/01:30pm 16.2 13.1 8.7 61 3.9 ESE 15 22 8 12 1018.3 1018.3 0.0
24/01:00pm 16.0 13.3 9.0 63 3.6 SE 13 20 7 11 1018.7 1018.7 0.0
24/12:30pm 15.0 12.0 9.1 68 3.0 SSE 15 20 8 11 1019.1 1019.1 0.0
24/12:00pm 15.8 13.1 10.3 70 2.9 SE 15 20 8 11 1019.5 1019.5 0.0
24/11:30am 15.1 12.3 9.9 71 2.7 ESE 15 20 8 11 1019.6 1019.6 0.0
24/11:00am 14.4 12.3 11.0 80 1.8 E 13 17 7 9 1020.0 1020.0 0.0
24/10:30am 13.5 11.6 11.7 89 1.0 E 13 17 7 9 1020.1 1020.1 0.0
24/10:00am 12.5 10.3 12.2 98 0.2 E 15 19 8 10 1020.1 1020.1 0.0
24/09:30am 11.9 10.8 11.9 100 0.0 ENE 9 15 5 8 1019.9 1019.9 0.0
24/09:00am 10.8 9.7 10.8 100 0.0 ENE 7 7 4 4 1019.7 1019.7 0.0
24/08:30am 10.9 9.5 10.9 100 0.0 ENE 9 11 5 6 1019.4 1019.4 0.0
24/08:00am 9.6 7.8 9.6 100 0.0 NE 9 11 5 6 1019.3 1019.3 0.0
24/07:30am 8.0 5.8 8.0 100 0.0 NNE 9 11 5 6 1019.1 1019.1 0.0
24/07:00am 10.0 8.3 10.0 100 0.0 ENE 9 9 5 5 1018.7 1018.7 0.0
24/06:30am 9.0 7.5 9.0 100 0.0 NE 7 9 4 5 1018.6 1018.6 0.0
24/06:00am 8.2 6.5 8.2 100 0.0 NE 7 9 4 5 1018.4 1018.4 0.0
24/05:30am 8.5 6.8 8.5 100 0.0 NE 7 7 4 4 1018.2 1018.2 0.0
24/05:00am 6.9 5.0 6.9 100 0.0 N 6 7 3 4 1018.2 1018.2 0.0
24/04:30am 8.2 6.1 8.2 100 0.0 N 9 11 5 6 1018.1 1018.1 0.0
24/04:00am 7.4 5.7 7.4 100 0.0 N 6 7 3 4 1018.2 1018.2 0.0
24/03:30am 7.2 4.8 7.1 99 0.0 N 9 9 5 5 1018.2 1018.2 0.0
24/03:00am 8.1 7.3 8.0 99 0.0 N 2 7 1 4 1018.3 1018.3 0.0
24/02:30am 8.2 6.4 7.8 97 0.2 NNW 7 9 4 5 1018.5 1018.5 0.0
24/02:00am 8.5 6.8 7.7 95 0.4 NW 6 7 3 4 1018.3 1018.3 0.0
24/01:30am 9.0 6.9 8.2 95 0.4 NNW 9 11 5 6 1018.4 1018.4 0.0
24/01:00am 9.4 7.3 8.2 92 0.6 WNW 9 11 5 6 1018.4 1018.4 0.0
24/12:30am 10.5 8.6 8.9 90 0.8 NNW 9 11 5 6 1018.4 1018.4 0.0
24/12:00am 10.9 8.2 8.8 87 1.0 NW 13 15 7 8 1018.6 1018.6 0.0
 
Date/Time
CST
Temp
°C
App
Temp
°C
Dew
Point
°C
Rel
Hum
%
Delta-T
°C
Wind Press
QNH
hPa
Press
MSL
hPa
Rain since
9am
mm
Dir  Spd
km/h
Gust
km/h
Spd
kts
Gust
kts
23/11:30pm 11.1 8.0 8.8 86 1.1 NNW 15 17 8 9 1018.7 1018.7 0.0
23/11:00pm 10.8 8.3 8.4 85 1.2 NW 11 15 6 8 1018.9 1018.9 0.0
23/10:30pm 11.5 8.4 8.9 84 1.3 NW 15 17 8 9 1018.8 1018.8 0.0
23/10:00pm 11.7 8.7 9.1 84 1.3 NW 15 19 8 10 1018.8 1018.8 0.0
23/09:30pm 11.9 8.7 8.4 79 1.7 NNW 15 19 8 10 1018.9 1018.9 0.0
23/09:00pm 11.5 8.5 5.8 68 2.7 NNW 11 13 6 7 1019.1 1019.1 0.0
23/08:30pm 11.1 7.4 4.3 63 3.1 NW 13 15 7 8 1018.7 1018.7 0.0
23/08:00pm 11.6 8.2 4.1 60 3.4 N 11 13 6 7 1018.3 1018.3 0.0
23/07:30pm 12.4 9.5 4.4 58 3.7 N 9 13 5 7 1017.9 1018.0 0.0
23/07:00pm 12.2 8.5 4.2 58 3.6 NNE 13 17 7 9 1017.6 1017.7 0.0
23/06:30pm 12.1 9.1 4.1 58 3.6 NNE 9 13 5 7 1017.3 1017.4 0.0
23/06:00pm 12.2 9.6 3.2 54 4.0 ESE 6 11 3 6 1016.9 1017.0 0.0
23/05:30pm 14.6 12.7 4.9 52 4.6 W 4 6 2 3 1016.8 1016.9 0.0
23/05:00pm 16.9 14.5 4.3 43 6.0 W 6 7 3 4 1016.8 1016.9 0.0
23/04:30pm 18.7 16.6 4.1 38 7.0 W 4 9 2 5 1016.5 1016.6 0.0
23/04:00pm 18.0 14.6 3.9 39 6.7 NW 11 13 6 7 1016.6 1016.7 0.0
23/03:30pm 18.2 14.8 4.0 39 6.8 WNW 11 15 6 8 1016.7 1016.8 0.0
23/03:00pm 18.3 14.5 3.8 38 6.9 WNW 13 17 7 9 1016.7 1016.8 0.0
23/02:30pm 18.4 14.6 3.8 38 6.9 WNW 13 19 7 10 1016.4 1016.5 0.0
23/02:00pm 18.6 14.1 4.0 38 7.0 W 17 24 9 13 1017.1 1017.2 0.0
23/01:30pm 18.9 14.0 3.9 37 7.2 WNW 19 24 10 13 1017.4 1017.5 0.0
23/01:00pm 18.4 12.9 3.8 38 6.9 WNW 22 30 12 16 1017.5 1017.6 0.0
23/12:30pm 18.5 13.0 3.9 38 6.9 WNW 22 32 12 17 1017.9 1018.0 0.0
23/12:00pm 18.1 12.5 3.6 38 6.8 WNW 22 30 12 16 1018.5 1018.5 0.0
23/11:30am 18.0 12.4 3.5 38 6.8 WNW 22 32 12 17 1018.7 1018.7 0.0
23/11:00am 17.8 12.2 3.7 39 6.7 WNW 22 32 12 17 1018.7 1018.7 0.0
23/10:30am 17.4 11.8 3.7 40 6.4 WNW 22 32 12 17 1018.7 1018.7 0.0
23/10:00am 16.9 10.9 3.6 41 6.2 WNW 24 35 13 19 1019.0 1019.0 0.0
23/09:30am 16.1 10.5 3.5 43 5.8 NW 22 32 12 17 1018.7 1018.7 0.0
23/09:00am 16.1 10.9 3.5 43 5.8 NW 20 28 11 15 1018.4 1018.4 0.0
23/08:30am 14.8 8.8 3.3 46 5.2 NNW 24 33 13 18 1017.9 1018.0 0.0
23/08:00am 14.2 9.1 3.1 47 5.0 NNW 19 30 10 16 1018.3 1018.3 0.0
23/07:30am 14.2 9.1 3.1 47 5.0 NNW 19 30 10 16 1018.1 1018.1 0.0
23/07:00am 13.8 7.0 3.0 48 4.9 NNW 28 35 15 19 1017.6 1017.7 0.0
23/06:30am 13.2 6.3 2.7 49 4.7 N 28 33 15 18 1017.3 1017.4 0.0
23/06:00am 13.2 7.8 2.7 49 4.7 NNW 20 28 11 15 1017.4 1017.5 0.0
23/05:30am 13.0 7.3 2.8 50 4.5 N 22 26 12 14 1017.6 1017.7 0.0
23/05:00am 13.2 7.8 2.7 49 4.7 N 20 26 11 14 1017.7 1017.8 0.0
23/04:30am 13.2 7.8 2.7 49 4.7 NNW 20 28 11 15 1017.5 1017.6 0.0
23/04:00am 12.7 7.3 2.3 49 4.6 NNW 20 24 11 13 1017.9 1018.0 0.0
23/03:30am 12.5 7.1 2.4 50 4.4 NNW 20 24 11 13 1018.3 1018.3 0.0
23/03:00am 12.2 6.9 1.8 49 4.5 NNW 19 22 10 12 1018.5 1018.5 0.0
23/02:30am 11.7 5.8 1.4 49 4.4 NNW 22 28 12 15 1019.1 1019.1 0.0
23/02:00am 11.9 5.6 1.3 48 4.5 NNW 24 28 13 15 1018.9 1018.9 0.0
23/01:30am 12.1 6.1 1.1 47 4.7 NNW 22 28 12 15 1019.1 1019.1 0.0
23/01:00am 12.0 6.4 1.3 48 4.6 NNW 20 24 11 13 1019.1 1019.1 0.0
23/12:30am 12.6 6.7 1.6 47 4.7 NNW 22 28 12 15 1019.4 1019.4 0.0
23/12:00am 12.6 6.7 1.6 47 4.7 NNW 22 28 12 15 1019.8 1019.8 0.0
 
Date/Time
CST
Temp
°C
App
Temp
°C
Dew
Point
°C
Rel
Hum
%
Delta-T
°C
Wind Press
QNH
hPa
Press
MSL
hPa
Rain since
9am
mm
Dir  Spd
km/h
Gust
km/h
Spd
kts
Gust
kts
22/11:30pm 12.3 6.4 1.6 48 4.6 NNW 22 30 12 16 1020.1 1020.1 0.0
22/11:00pm 12.4 6.1 1.4 47 4.7 NNW 24 30 13 16 1020.0 1020.0 0.0
22/10:30pm 12.6 5.9 1.3 46 4.8 NNW 26 30 14 16 1020.3 1020.3 0.0
22/10:00pm 12.6 6.6 1.3 46 4.8 NNW 22 28 12 15 1020.3 1020.3 0.0
22/09:30pm 12.9 6.6 1.6 46 4.9 N 24 28 13 15 1020.8 1020.9 0.0
22/09:00pm 13.1 6.8 1.5 45 5.0 NNW 24 30 13 16 1021.0 1021.1 0.0
22/08:30pm 13.4 7.1 1.4 44 5.2 NNW 24 28 13 15 1020.7 1020.8 0.0
22/08:00pm 13.6 7.3 1.3 43 5.3 NNW 24 30 13 16 1020.7 1020.8 0.0
22/07:30pm 13.6 7.6 1.3 43 5.3 NNW 22 26 12 14 1020.5 1020.5 0.0
22/07:00pm 13.4 7.8 1.1 43 5.3 NNW 20 22 11 12 1020.4 1020.4 0.0
22/06:30pm 13.6 8.2 1.3 43 5.3 NNW 19 20 10 11 1020.4 1020.4 0.0
22/06:00pm 13.6 9.3 0.9 42 5.4 NNW 13 17 7 9 1020.2 1020.2 0.0
22/05:30pm 15.8 11.8 0.4 35 6.6 NNW 11 13 6 7 1020.2 1020.2 0.0
22/05:00pm 17.7 14.1 0.8 32 7.5 NW 9 11 5 6 1020.4 1020.4 0.0
22/04:30pm 18.7 14.0 0.8 30 8.0 NW 15 22 8 12 1020.4 1020.4 0.0
22/04:00pm 19.0 13.9 0.6 29 8.2 NNW 17 24 9 13 1020.5 1020.5 0.0
22/03:30pm 19.3 13.8 0.4 28 8.4 NW 19 26 10 14 1020.6 1020.7 0.0
22/03:00pm 19.8 15.1 0.8 28 8.6 WNW 15 22 8 12 1020.6 1020.7 0.0
22/02:30pm 19.0 13.2 0.1 28 8.3 W 20 26 11 14 1020.8 1020.9 0.0
22/02:00pm 19.2 14.3 -0.2 27 8.6 NW 15 24 8 13 1021.3 1021.4 0.0
22/01:30pm 19.2 14.0 0.3 28 8.4 W 17 26 9 14 1021.5 1021.6 0.0
22/01:00pm 19.2 14.3 -0.2 27 8.6 WNW 15 20 8 11 1022.0 1022.1 0.0
22/12:30pm 18.7 14.1 -0.7 27 8.4 NW 13 20 7 11 1022.5 1022.6 0.0
22/12:00pm 18.6 13.4 -0.2 28 8.2 NW 17 20 9 11 1023.1 1023.2 0.0
22/11:30am 18.2 12.6 -0.1 29 8.0 NW 19 26 10 14 1023.9 1024.0 0.0
22/11:00am 17.8 12.0 0.0 30 7.8 NNW 20 28 11 15 1024.5 1024.5 0.0
22/10:30am 17.0 10.8 -0.2 31 7.4 NNW 22 28 12 15 1025.0 1025.0 0.0
22/10:00am 15.9 9.9 0.9 36 6.6 NNW 22 30 12 16 1025.2 1025.2 0.0
22/09:30am 14.3 8.3 1.2 41 5.7 N 22 28 12 15 1025.1 1025.1 0.0
22/09:00am 12.9 6.6 1.3 45 5.0 N 24 28 13 15 1025.0 1025.0 0.0
22/08:30am 11.9 5.5 1.0 47 4.6 N 24 28 13 15 1025.1 1025.1 0.0
22/08:00am 11.0 4.6 1.0 50 4.2 NNW 24 30 13 16 1024.8 1024.8 0.0
22/07:30am 8.8 3.4 1.0 58 3.2 N 19 22 10 12 1024.5 1024.5 0.0
22/07:00am 8.7 3.3 1.1 59 3.1 N 19 22 10 12 1024.4 1024.4 0.0
22/06:30am 9.9 5.2 0.8 53 3.7 N 15 19 8 10 1024.2 1024.2 0.0
22/06:00am 10.3 6.7 0.9 52 3.9 N 9 17 5 9 1023.8 1023.9 0.0
22/05:30am 11.7 5.7 0.8 47 4.6 N 22 30 12 16 1023.7 1023.8 0.0
22/05:00am 11.5 5.5 1.2 49 4.4 N 22 26 12 14 1023.7 1023.8 0.0
22/04:30am 12.6 6.3 1.6 47 4.7 N 24 30 13 16 1023.5 1023.6 0.0
22/04:00am 10.3 5.4 1.7 55 3.6 NNE 17 19 9 10 1023.9 1024.0 0.0
22/03:30am 10.5 5.2 1.9 55 3.6 NNE 19 20 10 11 1023.9 1024.0 0.0
22/03:00am 10.5 5.0 1.9 55 3.6 N 20 24 11 13 1024.2 1024.2 0.0
22/02:30am 9.9 5.7 1.8 57 3.4 N 13 15 7 8 1024.3 1024.3 0.0
22/02:00am 9.9 5.7 1.5 56 3.5 N 13 19 7 10 1024.7 1024.7 0.0
22/01:30am 8.9 4.7 1.6 60 3.0 N 13 15 7 8 1024.6 1024.6 0.0
22/01:00am 9.1 5.6 1.5 59 3.2 NNE 9 13 5 7 1024.9 1024.9 0.0
22/12:30am 8.4 4.1 0.9 59 3.0 N 13 15 7 8 1025.2 1025.2 0.0
22/12:00am 8.9 3.9 1.3 59 3.1 NNE 17 19 9 10 1025.5 1025.6 0.0
 
Date/Time
CST
Temp
°C
App
Temp
°C
Dew
Point
°C
Rel
Hum
%
Delta-T
°C
Wind Press
QNH
hPa
Press
MSL
hPa
Rain since
9am
mm
Dir  Spd
km/h
Gust
km/h
Spd
kts
Gust
kts
21/11:30pm 8.2 4.1 -0.5 54 3.4 NNE 11 15 6 8 1025.9 1026.0 0.0
21/11:00pm 8.6 5.3 -0.2 54 3.5 NE 7 13 4 7 1026.1 1026.2 0.0
21/10:30pm 7.7 3.2 -0.3 57 3.1 NNE 13 13 7 7 1026.2 1026.3 0.0
21/10:00pm 6.2 2.1 -0.3 63 2.5 NNE 11 13 6 7 1026.1 1026.2 0.0
21/09:30pm 6.6 2.1 -0.1 62 2.6 NNE 13 15 7 8 1026.1 1026.2 0.0
21/09:00pm 8.7 3.9 0.4 56 3.3 NNE 15 17 8 9 1026.3 1026.4 0.0
21/08:30pm 8.0 3.3 1.0 61 2.8 NNE 15 17 8 9 1026.1 1026.2 0.0

Other Formats:

Comma delimited format used in spreadsheet applications
http://www.bom.gov.au/fwo/IDS60801/IDS60801.94662.axf

JavaScript Object Notation format (JSON) in row-major order
http://www.bom.gov.au/fwo/IDS60801/IDS60801.94662.json